createdAt,value
2019-02-26T00:00:49.688Z,19.13
2019-02-26T00:03:19.783Z,19.60
2019-02-26T00:05:49.914Z,20.10
2019-02-26T00:08:21.413Z,20.67
2019-02-26T00:10:47.497Z,18.70
2019-02-26T00:13:15.451Z,19.43
2019-02-26T00:15:45.760Z,21.27
2019-02-26T00:18:13.878Z,20.07
2019-02-26T00:20:44.770Z,18.77
2019-02-26T00:23:12.738Z,20.60
2019-02-26T00:25:40.510Z,19.73
2019-02-26T00:28:08.496Z,19.70
2019-02-26T00:30:38.008Z,20.30
2019-02-26T00:33:06.127Z,19.93
2019-02-26T00:35:35.040Z,19.33
2019-02-26T00:38:02.939Z,18.27
2019-02-26T00:40:32.618Z,19.53
2019-02-26T00:43:02.540Z,21.00
2019-02-26T00:45:33.535Z,21.73
2019-02-26T00:48:00.047Z,21.17
2019-02-26T00:50:28.516Z,19.40
2019-02-26T00:52:59.409Z,19.77
2019-02-26T00:55:29.838Z,19.50
2019-02-26T00:58:00.663Z,19.47
2019-02-26T01:00:28.602Z,20.17
2019-02-26T01:02:56.913Z,19.07
2019-02-26T01:05:24.690Z,17.90
2019-02-26T01:07:54.369Z,20.90
2019-02-26T01:10:23.627Z,19.40
2019-02-26T01:12:51.670Z,20.87
2019-02-26T01:15:19.583Z,21.43
2019-02-26T01:17:47.516Z,21.57
2019-02-26T01:20:15.889Z,24.00
2019-02-26T01:22:45.374Z,23.50
2019-02-26T01:25:15.875Z,23.20
2019-02-26T01:27:43.705Z,23.80
2019-02-26T01:30:18.261Z,25.00
2019-02-26T01:32:44.495Z,26.37
2019-02-26T01:35:12.995Z,25.07
2019-02-26T01:37:41.551Z,25.03
2019-02-26T01:40:15.083Z,25.50
2019-02-26T01:42:47.252Z,25.97
2019-02-26T01:45:13.772Z,26.47
2019-02-26T01:47:47.639Z,26.27
2019-02-26T01:50:16.046Z,25.13
2019-02-26T01:52:44.300Z,23.90
2019-02-26T01:55:16.147Z,24.23
2019-02-26T01:57:46.859Z,27.53
2019-02-26T02:00:17.261Z,27.00
2019-02-26T02:02:45.110Z,24.80
2019-02-26T02:05:13.731Z,25.73
2019-02-26T02:07:44.217Z,25.77
2019-02-26T02:10:13.378Z,23.90
2019-02-26T02:12:42.897Z,25.03
2019-02-26T02:15:12.381Z,25.53
2019-02-26T02:17:41.724Z,25.60
2019-02-26T02:20:13.227Z,25.47
2019-02-26T02:22:42.179Z,25.10
2019-02-26T02:25:13.014Z,24.43
2019-02-26T02:27:40.886Z,24.97
2019-02-26T02:30:18.548Z,25.37
2019-02-26T02:32:43.133Z,24.63
2019-02-26T02:35:12.734Z,27.47
2019-02-26T02:37:40.677Z,26.07
2019-02-26T02:40:09.384Z,27.97
2019-02-26T02:42:38.482Z,26.93
2019-02-26T02:45:11.314Z,28.47
2019-02-26T02:47:39.641Z,27.50
2019-02-26T02:50:12.062Z,25.70
2019-02-26T02:52:39.641Z,25.20
2019-02-26T02:55:09.881Z,29.70
2019-02-26T02:57:37.446Z,28.93
2019-02-26T03:00:08.514Z,29.10
2019-02-26T03:02:40.578Z,30.07
2019-02-26T03:05:07.692Z,31.23
2019-02-26T03:07:35.611Z,27.80
2019-02-26T03:10:06.683Z,31.50
2019-02-26T03:12:33.893Z,31.80
2019-02-26T03:15:02.875Z,32.70
2019-02-26T03:17:32.773Z,29.07
2019-02-26T03:20:04.174Z,29.07
2019-02-26T03:22:33.243Z,31.43
2019-02-26T03:25:02.277Z,30.70
2019-02-26T03:27:31.120Z,30.90
2019-02-26T03:30:02.054Z,31.90
2019-02-26T03:32:31.318Z,29.90
2019-02-26T03:35:02.048Z,32.03
2019-02-26T03:37:31.233Z,31.23
2019-02-26T03:40:00.133Z,32.67
2019-02-26T03:42:28.737Z,34.57
2019-02-26T03:44:56.703Z,33.00
2019-02-26T03:47:24.492Z,32.17
2019-02-26T03:49:52.262Z,31.20
2019-02-26T03:52:20.217Z,34.10
2019-02-26T03:54:50.538Z,30.70
2019-02-26T03:57:20.088Z,33.27
2019-02-26T03:59:47.823Z,31.13
2019-02-26T04:02:18.134Z,29.90
2019-02-26T04:04:45.879Z,29.87
2019-02-26T04:07:15.107Z,27.83
2019-02-26T04:09:44.390Z,29.47
2019-02-26T04:12:14.990Z,27.97
2019-02-26T04:14:42.771Z,25.83
2019-02-26T04:17:10.513Z,27.20
2019-02-26T04:19:38.461Z,25.23
2019-02-26T04:22:30.357Z,25.60
2019-02-26T04:25:09.238Z,26.67
2019-02-26T04:28:11.148Z,26.50
2019-02-26T04:31:57.630Z,25.80
2019-02-26T04:34:51.445Z,25.17
2019-02-26T04:38:32.087Z,23.67
2019-02-26T04:41:23.619Z,24.30
2019-02-26T04:45:09.136Z,25.10
2019-02-26T04:47:36.031Z,25.37
2019-02-26T04:50:06.213Z,25.43
2019-02-26T04:52:35.749Z,28.77
2019-02-26T04:55:03.780Z,28.27
2019-02-26T04:57:31.552Z,26.90
2019-02-26T05:00:01.327Z,26.50
2019-02-26T05:02:29.564Z,29.37
2019-02-26T05:04:57.561Z,27.30
2019-02-26T05:07:25.343Z,25.23
2019-02-26T05:09:55.867Z,28.43
2019-02-26T05:12:25.030Z,27.93
2019-02-26T05:14:52.835Z,28.60
2019-02-26T05:17:21.870Z,25.33
2019-02-26T05:19:51.751Z,25.13
2019-02-26T05:22:22.015Z,27.30
2019-02-26T05:24:50.277Z,27.77
2019-02-26T05:27:22.290Z,27.13
2019-02-26T05:29:52.547Z,26.97
2019-02-26T05:32:26.554Z,25.37
2019-02-26T05:34:52.071Z,27.70
2019-02-26T05:37:19.864Z,26.70
2019-02-26T05:39:49.101Z,24.47
2019-02-26T05:42:17.741Z,27.10
2019-02-26T05:44:45.497Z,27.60
2019-02-26T05:47:15.742Z,28.20
2019-02-26T05:49:45.664Z,28.60
2019-02-26T05:52:13.007Z,26.93
2019-02-26T05:54:40.764Z,29.97
2019-02-26T05:57:10.822Z,29.73
2019-02-26T05:59:38.462Z,26.23
2019-02-26T06:02:06.350Z,28.47
2019-02-26T06:04:35.235Z,27.20
2019-02-26T06:07:04.709Z,29.10
2019-02-26T06:09:33.967Z,27.30
2019-02-26T06:12:02.116Z,29.20
2019-02-26T06:14:32.961Z,28.90
2019-02-26T06:16:59.595Z,28.17
2019-02-26T06:19:44.927Z,28.80
2019-02-26T06:22:17.227Z,28.10
2019-02-26T06:24:42.748Z,27.47
2019-02-26T06:27:13.080Z,27.70
2019-02-26T06:29:40.545Z,26.57
2019-02-26T06:32:12.100Z,29.40
2019-02-26T06:34:39.946Z,25.87
2019-02-26T06:37:17.565Z,27.27
2019-02-26T06:39:45.473Z,27.17
2019-02-26T06:42:14.517Z,27.33
2019-02-26T06:44:43.823Z,29.23
2019-02-26T06:47:12.094Z,29.90
2019-02-26T06:49:41.414Z,28.63
2019-02-26T06:52:10.831Z,25.53
2019-02-26T06:54:39.610Z,26.73
2019-02-26T06:57:07.692Z,27.97
2019-02-26T06:59:36.859Z,28.70
2019-02-26T07:02:05.061Z,28.20
2019-02-26T07:04:34.073Z,28.43
2019-02-26T07:07:03.882Z,29.70
2019-02-26T07:09:34.675Z,28.23
2019-02-26T07:12:03.591Z,27.47
2019-02-26T07:14:32.810Z,27.40
2019-02-26T07:17:01.232Z,27.37
2019-02-26T07:19:30.782Z,26.60
2019-02-26T07:21:58.724Z,25.77
2019-02-26T07:24:27.173Z,27.83
2019-02-26T07:26:56.353Z,26.13
2019-02-26T07:29:24.136Z,26.50
2019-02-26T07:31:54.089Z,25.47
2019-02-26T07:34:22.849Z,25.37
2019-02-26T07:36:52.526Z,23.30
2019-02-26T07:39:22.709Z,23.97
2019-02-26T07:41:51.771Z,22.50
2019-02-26T07:44:21.711Z,21.50
2019-02-26T07:46:50.001Z,22.50
2019-02-26T07:49:19.840Z,22.70
2019-02-26T07:51:47.558Z,23.43
2019-02-26T07:54:15.549Z,23.37
2019-02-26T07:56:43.349Z,21.87
2019-02-26T07:59:14.473Z,22.37
2019-02-26T08:01:43.094Z,23.40
2019-02-26T08:04:13.574Z,22.93
2019-02-26T08:06:43.501Z,23.20
2019-02-26T08:09:13.966Z,22.57
2019-02-26T08:11:44.391Z,23.17
2019-02-26T08:14:14.318Z,21.47
2019-02-26T08:16:42.136Z,21.07
2019-02-26T08:19:09.888Z,24.67
2019-02-26T08:21:37.897Z,23.10
2019-02-26T08:24:05.661Z,22.57
2019-02-26T08:26:33.485Z,22.97
2019-02-26T08:29:02.626Z,23.40
2019-02-26T08:31:31.207Z,23.63
2019-02-26T08:33:59.190Z,22.77
2019-02-26T08:36:26.957Z,23.00
2019-02-26T08:38:57.146Z,24.77
2019-02-26T08:41:24.755Z,23.50
2019-02-26T08:43:54.581Z,24.47
2019-02-26T08:46:22.406Z,23.57
2019-02-26T08:48:50.789Z,22.77
2019-02-26T08:51:21.059Z,22.80
2019-02-26T08:53:49.503Z,22.20
2019-02-26T08:56:18.897Z,22.07
2019-02-26T08:58:47.050Z,20.67
2019-02-26T09:01:14.815Z,22.20
2019-02-26T09:03:42.760Z,20.70
2019-02-26T09:06:13.499Z,20.17
2019-02-26T09:08:41.203Z,19.40
2019-02-26T09:11:11.449Z,20.13
2019-02-26T09:13:41.168Z,20.63
2019-02-26T09:16:09.794Z,20.20
2019-02-26T09:18:40.176Z,20.30
2019-02-26T09:21:07.354Z,19.93
2019-02-26T09:23:35.348Z,20.33
2019-02-26T09:26:05.158Z,20.80
2019-02-26T09:28:32.818Z,22.07
2019-02-26T09:31:01.887Z,21.10
2019-02-26T09:33:32.945Z,19.80
2019-02-26T09:36:00.304Z,19.97
2019-02-26T09:38:28.415Z,19.97
2019-02-26T09:40:57.100Z,19.20
2019-02-26T09:43:25.030Z,19.03
2019-02-26T09:45:53.016Z,19.47
2019-02-26T09:48:25.321Z,20.00
2019-02-26T09:50:53.100Z,19.83
2019-02-26T09:53:21.077Z,19.07
2019-02-26T09:55:49.058Z,17.70
2019-02-26T09:58:21.191Z,18.60
2019-02-26T10:00:50.928Z,18.93
2019-02-26T10:03:18.117Z,19.33
2019-02-26T10:05:48.224Z,19.10
2019-02-26T10:08:17.359Z,18.63
2019-02-26T10:10:45.419Z,19.23
2019-02-26T10:13:13.355Z,17.10
2019-02-26T10:15:42.770Z,19.53
2019-02-26T10:18:11.036Z,18.00
2019-02-26T10:20:38.830Z,18.43
2019-02-26T10:23:06.629Z,17.63
2019-02-26T10:25:35.564Z,17.47
2019-02-26T10:28:08.760Z,17.43
2019-02-26T10:30:36.221Z,17.70
2019-02-26T10:33:07.054Z,17.77
2019-02-26T10:35:36.234Z,17.67
2019-02-26T10:38:07.674Z,17.90
2019-02-26T10:40:37.044Z,17.13
2019-02-26T10:43:04.214Z,16.57
2019-02-26T10:45:38.697Z,15.07
2019-02-26T10:48:03.275Z,16.03
2019-02-26T10:50:32.338Z,15.83
2019-02-26T10:53:06.956Z,14.80
2019-02-26T10:55:38.389Z,14.63
2019-02-26T10:58:06.829Z,15.03
2019-02-26T11:00:34.772Z,15.50
2019-02-26T11:03:01.404Z,15.67
2019-02-26T11:05:29.196Z,15.20
2019-02-26T11:07:59.839Z,14.53
2019-02-26T11:10:26.844Z,14.67
2019-02-26T11:12:58.613Z,13.00
2019-02-26T11:15:26.706Z,14.10
2019-02-26T11:17:55.844Z,14.33
2019-02-26T11:20:27.034Z,12.57
2019-02-26T11:22:53.861Z,12.40
2019-02-26T11:25:24.175Z,12.60
2019-02-26T11:27:51.558Z,12.53
2019-02-26T11:30:21.126Z,10.63
2019-02-26T11:32:49.240Z,13.03
2019-02-26T11:35:19.496Z,12.27
2019-02-26T11:37:49.841Z,12.67
2019-02-26T11:40:18.161Z,12.07
2019-02-26T11:42:48.839Z,10.67
2019-02-26T11:45:19.304Z,12.17
2019-02-26T11:47:47.067Z,13.57
2019-02-26T11:50:16.632Z,13.40
2019-02-26T11:52:44.918Z,11.93
2019-02-26T11:55:13.552Z,12.17
2019-02-26T11:57:43.177Z,11.93
2019-02-26T12:00:24.255Z,12.50
2019-02-26T12:02:46.430Z,10.00
2019-02-26T12:05:14.202Z,9.07
2019-02-26T12:07:42.172Z,10.73
2019-02-26T12:10:14.524Z,10.27
2019-02-26T12:12:41.649Z,9.60
2019-02-26T12:15:12.464Z,11.23
2019-02-26T12:17:40.952Z,11.50
2019-02-26T12:20:12.136Z,12.23
2019-02-26T12:22:44.474Z,12.30
2019-02-26T12:25:11.950Z,12.23
2019-02-26T12:27:41.336Z,13.00
2019-02-26T12:30:15.823Z,12.47
2019-02-26T12:32:47.254Z,12.27
2019-02-26T12:35:15.902Z,11.20
2019-02-26T12:37:43.546Z,12.40
2019-02-26T12:40:13.023Z,12.30
2019-02-26T12:42:41.840Z,11.40
2019-02-26T12:45:13.614Z,12.27
2019-02-26T12:47:43.007Z,11.20
2019-02-26T12:50:14.008Z,11.97
2019-02-26T12:52:42.310Z,9.13
2019-02-26T12:55:12.018Z,9.67
2019-02-26T12:57:40.020Z,9.77
2019-02-26T13:00:13.357Z,10.70
2019-02-26T13:02:43.358Z,11.67
2019-02-26T13:05:13.472Z,10.57
2019-02-26T13:07:42.204Z,10.60
2019-02-26T13:10:14.688Z,10.47
2019-02-26T13:12:48.784Z,10.13
2019-02-26T13:15:19.098Z,13.47
2019-02-26T13:17:45.255Z,13.73
2019-02-26T13:20:17.039Z,13.83
2019-02-26T13:22:45.962Z,11.67
2019-02-26T13:25:17.128Z,11.00
2019-02-26T13:27:47.276Z,11.93
2019-02-26T13:30:18.225Z,10.47
2019-02-26T13:33:05.196Z,11.97
2019-02-26T13:35:15.842Z,13.57
2019-02-26T13:37:44.375Z,12.27
2019-02-26T13:40:14.927Z,13.40
2019-02-26T13:42:42.705Z,13.70
2019-02-26T13:45:13.954Z,12.80
2019-02-26T13:47:42.194Z,13.27
2019-02-26T13:50:13.781Z,12.60
2019-02-26T13:52:41.895Z,11.07
2019-02-26T13:55:12.139Z,11.60
2019-02-26T13:57:39.941Z,12.10
2019-02-26T14:00:13.104Z,11.77
2019-02-26T14:02:40.885Z,12.67
2019-02-26T14:05:09.219Z,12.40
2019-02-26T14:07:37.228Z,13.53
2019-02-26T14:10:07.693Z,14.47
2019-02-26T14:12:35.632Z,13.37
2019-02-26T14:15:04.120Z,12.20
2019-02-26T14:17:31.885Z,12.70
2019-02-26T14:19:59.821Z,12.33
2019-02-26T14:22:27.598Z,13.37
2019-02-26T14:24:55.496Z,12.80
2019-02-26T14:27:23.472Z,13.80
2019-02-26T14:29:51.296Z,13.37
2019-02-26T14:32:19.239Z,13.90
2019-02-26T14:34:47.096Z,13.47
2019-02-26T14:37:14.901Z,13.07
2019-02-26T14:39:42.942Z,13.40
2019-02-26T14:42:10.884Z,12.83
2019-02-26T14:44:38.776Z,13.07
2019-02-26T14:47:06.694Z,12.57
2019-02-26T14:49:34.505Z,13.33
2019-02-26T14:52:02.600Z,13.97
2019-02-26T14:54:30.393Z,13.90
2019-02-26T14:56:58.205Z,14.40
2019-02-26T14:59:26.452Z,14.30
2019-02-26T15:01:55.896Z,14.70
2019-02-26T15:04:23.909Z,15.10
2019-02-26T15:06:53.616Z,15.87
2019-02-26T15:09:21.444Z,15.57
2019-02-26T15:11:49.429Z,14.40
2019-02-26T15:14:17.442Z,14.10
2019-02-26T15:16:45.275Z,14.67
2019-02-26T15:19:13.060Z,13.60
2019-02-26T15:21:41.066Z,14.37
2019-02-26T15:24:09.257Z,14.77
2019-02-26T15:26:37.202Z,14.43
2019-02-26T15:29:05.185Z,13.27
2019-02-26T15:31:33.049Z,13.10
2019-02-26T15:34:01.017Z,11.53
2019-02-26T15:36:30.626Z,12.80
2019-02-26T15:38:59.457Z,11.70
2019-02-26T15:41:27.528Z,12.10
2019-02-26T15:43:56.537Z,11.80
2019-02-26T15:46:25.121Z,11.77
2019-02-26T15:48:53.265Z,11.90
2019-02-26T15:51:21.187Z,12.47
2019-02-26T15:53:49.226Z,12.23
2019-02-26T15:56:17.028Z,11.93
2019-02-26T15:58:46.622Z,13.30
2019-02-26T16:01:15.152Z,12.77
2019-02-26T16:03:45.382Z,12.20
2019-02-26T16:06:13.201Z,12.63
2019-02-26T16:08:41.365Z,12.63
2019-02-26T16:11:10.857Z,13.13
2019-02-26T16:13:38.688Z,13.33
2019-02-26T16:16:06.608Z,12.30
2019-02-26T16:18:34.402Z,12.67
2019-02-26T16:21:02.352Z,12.00
2019-02-26T16:23:30.153Z,12.00
2019-02-26T16:25:57.946Z,12.90
2019-02-26T16:28:27.331Z,12.30
2019-02-26T16:30:56.464Z,11.80
2019-02-26T16:33:24.476Z,12.97
2019-02-26T16:35:52.413Z,11.80
2019-02-26T16:38:20.215Z,12.00
2019-02-26T16:40:48.599Z,12.80
2019-02-26T16:43:17.137Z,12.57
2019-02-26T16:45:46.090Z,13.13
2019-02-26T16:48:13.895Z,12.90
2019-02-26T16:50:45.567Z,12.07
2019-02-26T16:53:18.012Z,12.17
2019-02-26T16:55:48.555Z,13.10
2019-02-26T16:58:15.653Z,13.00
2019-02-26T17:00:43.547Z,14.10
2019-02-26T17:03:11.620Z,14.87
2019-02-26T17:05:40.843Z,15.03
2019-02-26T17:08:10.102Z,15.57
2019-02-26T17:10:38.160Z,15.37
2019-02-26T17:13:05.973Z,16.80
2019-02-26T17:15:34.055Z,16.87
2019-02-26T17:18:01.846Z,17.60
2019-02-26T17:20:29.712Z,18.40
2019-02-26T17:22:58.895Z,17.77
2019-02-26T17:25:28.480Z,17.60
2019-02-26T17:27:56.652Z,19.70
2019-02-26T17:30:24.816Z,20.00
2019-02-26T17:32:52.855Z,18.70
2019-02-26T17:35:20.657Z,20.23
2019-02-26T17:37:48.683Z,19.40
2019-02-26T17:40:16.929Z,21.73
2019-02-26T17:42:44.942Z,20.73
2019-02-26T17:45:15.239Z,20.47
2019-02-26T17:47:43.039Z,20.23
2019-02-26T17:50:18.474Z,20.93
2019-02-26T17:52:46.276Z,22.50
2019-02-26T17:55:14.279Z,20.27
2019-02-26T17:57:42.911Z,22.70
2019-02-26T18:00:13.102Z,22.20
2019-02-26T18:02:40.886Z,21.10
2019-02-26T18:05:10.693Z,23.17
2019-02-26T18:07:39.037Z,22.93
2019-02-26T18:10:12.543Z,22.17
2019-02-26T18:12:42.676Z,22.43
2019-02-26T18:15:10.741Z,22.27
2019-02-26T18:17:38.678Z,23.63
2019-02-26T18:20:11.209Z,24.23
2019-02-26T18:22:39.263Z,22.83
2019-02-26T18:25:09.589Z,22.73
2019-02-26T18:27:37.650Z,23.30
2019-02-26T18:30:07.467Z,23.87
2019-02-26T18:32:35.310Z,25.37
2019-02-26T18:35:03.499Z,26.30
2019-02-26T18:37:31.337Z,25.00
2019-02-26T18:39:59.144Z,23.10
2019-02-26T18:42:27.104Z,24.23
2019-02-26T18:44:55.194Z,21.93
2019-02-26T18:47:23.320Z,23.13
2019-02-26T18:49:52.815Z,23.30
2019-02-26T18:52:21.156Z,23.90
2019-02-26T18:54:49.001Z,22.80
2019-02-26T18:57:18.187Z,22.53
2019-02-26T18:59:46.201Z,23.90
2019-02-26T19:02:14.037Z,23.00
2019-02-26T19:04:42.128Z,23.23
2019-02-26T19:07:10.133Z,25.13
2019-02-26T19:09:37.970Z,24.07
2019-02-26T19:12:05.807Z,24.20
2019-02-26T19:14:33.851Z,22.47
2019-02-26T19:17:01.855Z,23.33
2019-02-26T19:19:29.756Z,23.40
2019-02-26T19:21:59.006Z,23.80
2019-02-26T19:24:27.129Z,23.80
2019-02-26T19:26:55.095Z,23.73
2019-02-26T19:29:23.152Z,24.20
2019-02-26T19:31:50.970Z,23.87
2019-02-26T19:34:18.821Z,22.53
2019-02-26T19:36:46.855Z,23.40
2019-02-26T19:39:14.699Z,22.50
2019-02-26T19:41:45.268Z,24.03
2019-02-26T19:44:12.510Z,23.77
2019-02-26T19:46:40.724Z,23.17
2019-02-26T19:49:08.750Z,23.97
2019-02-26T19:51:36.550Z,23.97
2019-02-26T19:54:04.751Z,24.67
2019-02-26T19:56:34.203Z,24.10
2019-02-26T19:59:02.153Z,24.80
2019-02-26T20:01:30.073Z,23.37
2019-02-26T20:03:58.044Z,25.00
2019-02-26T20:06:26.910Z,25.87
2019-02-26T20:08:55.211Z,24.90
2019-02-26T20:11:23.376Z,22.20
2019-02-26T20:13:51.481Z,23.10
2019-02-26T20:16:19.289Z,24.30
2019-02-26T20:18:47.183Z,23.50
2019-02-26T20:21:16.842Z,24.57
2019-02-26T20:23:46.829Z,22.83
2019-02-26T20:26:16.479Z,25.17
2019-02-26T20:28:44.470Z,25.17
2019-02-26T20:31:12.513Z,23.80
2019-02-26T20:33:40.713Z,24.13
2019-02-26T20:36:08.662Z,22.83
2019-02-26T20:38:36.839Z,24.37
2019-02-26T20:41:04.644Z,23.20
2019-02-26T20:43:36.392Z,24.70
2019-02-26T20:46:02.424Z,25.60
2019-02-26T20:48:36.852Z,24.43
2019-02-26T20:51:04.618Z,26.33
2019-02-26T20:53:32.578Z,24.10
2019-02-26T20:56:00.523Z,24.23
2019-02-26T20:58:28.331Z,24.60
2019-02-26T21:00:58.637Z,25.60
2019-02-26T21:03:26.087Z,24.67
2019-02-26T21:05:53.889Z,24.90
2019-02-26T21:08:22.763Z,24.20
2019-02-26T21:10:50.818Z,23.43
2019-02-26T21:13:18.602Z,25.30
2019-02-26T21:15:47.309Z,23.23
2019-02-26T21:18:16.204Z,24.53
2019-02-26T21:20:44.019Z,25.73
2019-02-26T21:23:11.839Z,24.80
2019-02-26T21:25:43.927Z,23.90
2019-02-26T21:28:09.500Z,24.27
2019-02-26T21:30:37.294Z,22.50
2019-02-26T21:33:05.355Z,24.30
2019-02-26T21:35:33.183Z,23.90
2019-02-26T21:38:00.962Z,24.70
2019-02-26T21:40:29.977Z,24.30
2019-02-26T21:43:01.754Z,26.40
2019-02-26T21:45:29.206Z,25.70
2019-02-26T21:47:57.221Z,24.40
2019-02-26T21:50:25.260Z,25.13
2019-02-26T21:53:00.061Z,24.47
2019-02-26T21:55:26.518Z,24.90
2019-02-26T21:57:55.271Z,25.30
2019-02-26T22:00:23.415Z,23.43
2019-02-26T22:02:52.384Z,24.87
2019-02-26T22:05:21.106Z,23.70
2019-02-26T22:07:51.978Z,24.20
2019-02-26T22:10:19.265Z,21.90
2019-02-26T22:12:48.996Z,26.90
2019-02-26T22:15:16.982Z,27.00
2019-02-26T22:17:44.762Z,25.17
2019-02-26T22:20:22.115Z,25.43
2019-02-26T22:22:43.174Z,25.70
2019-02-26T22:25:15.981Z,25.77
2019-02-26T22:27:41.611Z,26.83
2019-02-26T22:30:12.741Z,24.27
2019-02-26T22:32:40.659Z,25.90
2019-02-26T22:35:08.760Z,23.63
2019-02-26T22:37:38.926Z,24.80
2019-02-26T22:40:08.113Z,26.90
2019-02-26T22:42:35.967Z,25.57
2019-02-26T22:45:04.538Z,27.30
2019-02-26T22:47:32.317Z,24.90
2019-02-26T22:50:00.292Z,25.23
2019-02-26T22:52:30.615Z,27.90
2019-02-26T22:54:58.173Z,28.10
2019-02-26T22:57:29.786Z,26.37
2019-02-26T22:59:57.589Z,26.53
2019-02-26T23:02:25.911Z,26.10
2019-02-26T23:04:55.684Z,26.40
2019-02-26T23:07:23.558Z,24.20
2019-02-26T23:09:52.433Z,25.27
2019-02-26T23:12:21.476Z,25.80
2019-02-26T23:14:49.365Z,25.40
2019-02-26T23:17:17.771Z,26.60
2019-02-26T23:19:45.660Z,25.93
2019-02-26T23:22:13.544Z,24.83
2019-02-26T23:24:41.518Z,26.20
2019-02-26T23:27:09.424Z,25.83
2019-02-26T23:29:40.617Z,25.57
2019-02-26T23:32:08.585Z,26.63
2019-02-26T23:34:36.793Z,26.00
2019-02-26T23:37:05.179Z,27.07
2019-02-26T23:39:32.961Z,28.00
2019-02-26T23:42:00.947Z,28.10
2019-02-26T23:44:28.712Z,29.60
2019-02-26T23:46:56.468Z,26.33
2019-02-26T23:49:24.515Z,28.03
2019-02-26T23:51:53.815Z,27.60
2019-02-26T23:54:22.145Z,28.77
2019-02-26T23:56:52.099Z,26.83
2019-02-26T23:59:19.780Z,29.30
